^^
Grace C. Lehan Memorial Weather Station Historical Data
Daily Summary for September 29, 2021 Units:  Metric    English   Both
Daily Weekly Monthly Yearly
  High: Low: Average:
Temperature: -6.7 °C -13.2 °C -9.4 °C
Dew Point: -14.4 °C -19.3 °C -16.2 °C
Humidity: 69% 47.6% 58%
Wind Speed: 23.7km/h 0.3km/h 10.3km/h
Wind Gust: 48.3km/h - -
Wind- - NW
Pressure: 1021.9 hPa 1014.8 hPa -
Precipitation: 0 mm    
 
 
Tabular Data for September 29, 2021
Time Temperature Dew Point Pressure Wind Wind Speed Wind Gust Humidity Rainfall Rate (Hourly) solar
00:04 -8.4 °C -14.8 °C 1017.5 hPa NW 11.7 km/h 38.6 km/h 60% 0 mm 0 W/m2
00:09 -8.5 °C -14.9 °C 1017.5 hPa NW 6.1 km/h 22.5 km/h 60% 0 mm 0 W/m2
00:14 -8.6 °C -14.8 °C 1017.5 hPa NW 10.3 km/h 24.1 km/h 60.9% 0 mm 0 W/m2
00:19 -8.7 °C -14.8 °C 1017.5 hPa NW 13.7 km/h 25.7 km/h 61% 0 mm 0 W/m2
00:24 -8.7 °C -14.8 °C 1017.2 hPa NW 11.4 km/h 25.7 km/h 61% 0 mm 0 W/m2
00:29 -8.7 °C -14.7 °C 1017.2 hPa NW 12.9 km/h 32.2 km/h 61.8% 0 mm 0 W/m2
00:34 -8.7 °C -14.6 °C 1017.2 hPa NW 11.9 km/h 32.2 km/h 62% 0 mm 0 W/m2
00:39 -8.7 °C -14.6 °C 1017.2 hPa NW 15.3 km/h 32.2 km/h 62% 0 mm 0 W/m2
00:44 -8.7 °C -14.6 °C 1017.2 hPa NW 16.4 km/h 35.4 km/h 62% 0 mm 0 W/m2
00:49 -8.7 °C -14.6 °C 1016.8 hPa WNW 7.2 km/h 35.4 km/h 62.2% 0 mm 0 W/m2
00:54 -8.7 °C -14.5 °C 1016.8 hPa NW 10.3 km/h 35.4 km/h 63% 0 mm 0 W/m2
00:59 -8.8 °C -14.5 °C 1016.8 hPa NW 8.9 km/h 35.4 km/h 63% 0 mm 0 W/m2
01:04 -8.8 °C -14.6 °C 1016.8 hPa NW 6.9 km/h 35.4 km/h 63% 0 mm 0 W/m2
01:09 -8.8 °C -14.4 °C 1016.8 hPa NW 7.7 km/h 17.7 km/h 63.8% 0 mm 0 W/m2
01:14 -8.9 °C -14.4 °C 1016.8 hPa NW 7.1 km/h 19.3 km/h 64% 0 mm 0 W/m2
01:19 -8.9 °C -14.5 °C 1016.8 hPa NNW 6.4 km/h 19.3 km/h 64% 0 mm 0 W/m2
01:24 -9 °C -14.4 °C 1016.8 hPa NW 7.2 km/h 19.3 km/h 64.5% 0 mm 0 W/m2
01:29 -9 °C -14.4 °C 1016.8 hPa NW 8.7 km/h 19.3 km/h 65% 0 mm 0 W/m2
01:34 -9 °C -14.4 °C 1016.8 hPa NW 7.6 km/h 20.9 km/h 65% 0 mm 0 W/m2
01:39 -9.1 °C -14.4 °C 1016.8 hPa NNW 6.4 km/h 20.9 km/h 65% 0 mm 0 W/m2
01:44 -9.1 °C -14.4 °C 1016.8 hPa NW 10.1 km/h 20.9 km/h 65% 0 mm 0 W/m2
01:49 -9.1 °C -14.4 °C 1016.5 hPa NW 7.4 km/h 29 km/h 65% 0 mm 0 W/m2
01:54 -9.1 °C -14.4 °C 1016.5 hPa NNW 5.3 km/h 29 km/h 65% 0 mm 0 W/m2
01:59 -9.1 °C -14.4 °C 1016.5 hPa NW 6 km/h 29 km/h 65% 0 mm 0 W/m2
02:04 -9.1 °C -14.5 °C 1016.5 hPa NW 7.1 km/h 29 km/h 65% 0 mm 0 W/m2
02:09 -9.2 °C -14.5 °C 1016.5 hPa NW 6.8 km/h 19.3 km/h 65% 0 mm 0 W/m2
02:14 -9.2 °C -14.6 °C 1016.5 hPa NW 10 km/h 22.5 km/h 65% 0 mm 0 W/m2
02:19 -9.2 °C -14.5 °C 1016.1 hPa NW 5 km/h 22.5 km/h 65% 0 mm 0 W/m2
02:24 -9.2 °C -14.5 °C 1016.1 hPa WNW 5.3 km/h 22.5 km/h 65% 0 mm 0 W/m2
02:29 -9.2 °C -14.6 °C 1016.1 hPa NW 6.6 km/h 22.5 km/h 65.2% 0 mm 0 W/m2
02:34 -9.2 °C -14.4 °C 1016.1 hPa NW 8 km/h 22.5 km/h 65.8% 0 mm 0 W/m2
02:39 -9.3 °C -14.6 °C 1016.1 hPa NW 9.3 km/h 20.9 km/h 65% 0 mm 0 W/m2
02:44 -9.3 °C -14.6 °C 1016.1 hPa NW 10 km/h 20.9 km/h 65% 0 mm 0 W/m2
02:49 -9.2 °C -14.6 °C 1016.1 hPa WNW 12.2 km/h 24.1 km/h 65% 0 mm 0 W/m2
02:54 -9.2 °C -14.6 °C 1016.1 hPa NW 7.9 km/h 24.1 km/h 65% 0 mm 0 W/m2
02:59 -9.2 °C -14.6 °C 1016.1 hPa NW 8.4 km/h 24.1 km/h 65% 0 mm 0 W/m2
03:04 -9.3 °C -14.7 °C 1015.8 hPa NW 8.7 km/h 24.1 km/h 64.8% 0 mm 0 W/m2
03:09 -9.3 °C -14.8 °C 1015.8 hPa NW 7.9 km/h 20.9 km/h 64% 0 mm 0 W/m2
03:14 -9.3 °C -14.8 °C 1015.8 hPa NW 8.4 km/h 20.9 km/h 64% 0 mm 0 W/m2
03:19 -9.3 °C -14.9 °C 1015.8 hPa NW 5.1 km/h 20.9 km/h 64% 0 mm 0 W/m2
03:24 -9.4 °C -14.9 °C 1015.8 hPa NNW 6.1 km/h 20.9 km/h 64% 0 mm 0 W/m2
03:29 -9.4 °C -15 °C 1015.8 hPa NW 9.5 km/h 22.5 km/h 64% 0 mm 0 W/m2
03:34 -9.5 °C -14.9 °C 1015.8 hPa NNW 6.4 km/h 22.5 km/h 64.6% 0 mm 0 W/m2
03:39 -9.5 °C -14.8 °C 1015.8 hPa NW 6.4 km/h 17.7 km/h 65% 0 mm 0 W/m2
03:44 -9.6 °C -14.9 °C 1015.8 hPa NW 8.4 km/h 17.7 km/h 65% 0 mm 0 W/m2
03:49 -9.6 °C -14.9 °C 1015.5 hPa NW 8 km/h 17.7 km/h 65% 0 mm 0 W/m2
03:54 -9.6 °C -15 °C 1015.8 hPa NW 10 km/h 19.3 km/h 65% 0 mm 0 W/m2
03:59 -9.7 °C -15 °C 1015.8 hPa NW 9 km/h 22.5 km/h 65% 0 mm 0 W/m2
04:00 -9.7 °C -15 °C 1015.5 hPa NW 8 km/h 22.5 km/h 65% 0 mm 0 W/m2
04:09 -9.7 °C -15.2 °C 1015.5 hPa NW 11.9 km/h 22.5 km/h 64% 0 mm 0 W/m2
04:14 -9.7 °C -15.2 °C 1015.5 hPa NW 18.8 km/h 30.6 km/h 63.8% 0 mm 0 W/m2
04:19 -9.7 °C -15.4 °C 1015.5 hPa NW 23.7 km/h 40.2 km/h 63% 0 mm 0 W/m2
04:24 -9.7 °C -15.4 °C 1015.8 hPa NW 19.8 km/h 43.5 km/h 63% 0 mm 0 W/m2
04:29 -9.7 °C -15.6 °C 1015.8 hPa NW 21.9 km/h 43.5 km/h 62.5% 0 mm 0 W/m2
04:34 -9.8 °C -15.4 °C 1015.8 hPa NW 17.9 km/h 43.5 km/h 63.3% 0 mm 0 W/m2
04:39 -9.8 °C -15.2 °C 1015.8 hPa NW 17.5 km/h 43.5 km/h 65% 0 mm 0 W/m2
04:44 -9.9 °C -15.1 °C 1015.5 hPa WNW 14.8 km/h 43.5 km/h 66% 0 mm 0 W/m2
04:49 -9.9 °C -14.8 °C 1015.8 hPa NNW 9.5 km/h 43.5 km/h 67.5% 0 mm 0 W/m2
04:54 -9.9 °C -14.6 °C 1015.8 hPa NW 15 km/h 43.5 km/h 69% 0 mm 0 W/m2
04:59 -10.1 °C -15.2 °C 1015.5 hPa NW 18.7 km/h 43.5 km/h 66.2% 0 mm 0 W/m2
05:04 -10.3 °C -15.8 °C 1015.8 hPa NW 16.1 km/h 43.5 km/h 64% 0 mm 0 W/m2
05:09 -10.4 °C -16.4 °C 1015.5 hPa NW 15.3 km/h 35.4 km/h 61.4% 0 mm 0 W/m2
05:14 -10.6 °C -16.7 °C 1015.5 hPa NW 13.7 km/h 35.4 km/h 60.5% 0 mm 0 W/m2
05:19 -10.7 °C -16.9 °C 1015.5 hPa WNW 21.4 km/h 43.5 km/h 60.2% 0 mm 0 W/m2
05:24 -10.9 °C -17.4 °C 1014.8 hPa WNW 20 km/h 43.5 km/h 59% 0 mm 0 W/m2
05:29 -11.1 °C -17.6 °C 1015.5 hPa NW 19.3 km/h 43.5 km/h 58.8% 0 mm 0 W/m2
05:34 -11.2 °C -17.3 °C 1015.8 hPa WNW 21.2 km/h 43.5 km/h 60.7% 0 mm 0 W/m2
05:39 -11.4 °C -17.2 °C 1015.5 hPa WNW 19 km/h 38.6 km/h 62% 0 mm 0 W/m2
05:44 -11.6 °C -17.4 °C 1015.8 hPa NW 20.1 km/h 38.6 km/h 61.9% 0 mm 0 W/m2
05:49 -11.7 °C -17.7 °C 1015.8 hPa NW 15.8 km/h 38.6 km/h 61% 0 mm 0 W/m2
05:54 -11.8 °C -17.9 °C 1015.8 hPa WNW 20.4 km/h 41.8 km/h 60.6% 0 mm 0 W/m2
05:59 -11.9 °C -18.2 °C 1015.8 hPa WNW 17.9 km/h 43.5 km/h 60% 0 mm 0 W/m2
06:04 -12.1 °C -18.1 °C 1015.8 hPa WNW 15.8 km/h 43.5 km/h 60.7% 0 mm 0 W/m2
06:09 -12.1 °C -18.1 °C 1015.8 hPa WNW 12.1 km/h 24.1 km/h 61% 0 mm 0 W/m2
06:14 -12.2 °C -18.2 °C 1015.8 hPa NW 16.6 km/h 32.2 km/h 61% 0 mm 0 W/m2
06:19 -12.4 °C -18.3 °C 1015.8 hPa WNW 14.3 km/h 33.8 km/h 61% 0 mm 0 W/m2
06:24 -12.5 °C -18.4 °C 1015.8 hPa WNW 8.2 km/h 33.8 km/h 61% 0 mm 0 W/m2
06:29 -12.6 °C -18.6 °C 1015.8 hPa NW 14.5 km/h 35.4 km/h 61% 0 mm 0 W/m2
06:34 -12.7 °C -18.7 °C 1015.8 hPa NW 10.1 km/h 35.4 km/h 61% 0 mm 0 W/m2
06:39 -12.8 °C -18.8 °C 1016.1 hPa NW 8.9 km/h 25.7 km/h 61% 0 mm 0 W/m2
06:44 -12.9 °C -18.8 °C 1016.1 hPa NW 10.1 km/h 29 km/h 61% 0 mm 0 W/m2
06:49 -13 °C -19.1 °C 1016.1 hPa NW 13.7 km/h 32.2 km/h 60.4% 0 mm 0 W/m2
06:54 -13.1 °C -19.2 °C 1015.8 hPa NW 8.9 km/h 32.2 km/h 60.2% 0 mm 0 W/m2
06:59 -13.1 °C -19.1 °C 1015.8 hPa NW 9.7 km/h 32.2 km/h 60.7% 0 mm 0 W/m2
07:04 -13.2 °C -19.3 °C 1015.8 hPa NW 9.7 km/h 32.2 km/h 60% 0 mm 0 W/m2
07:09 -13.2 °C -19.3 °C 1016.1 hPa NNW 10.3 km/h 25.7 km/h 60% 0 mm 7 W/m2
07:14 -13.2 °C -19.3 °C 1016.5 hPa North 6.8 km/h 25.7 km/h 60% 0 mm 11 W/m2
07:19 -13.2 °C -19.3 °C 1016.5 hPa North 3.7 km/h 25.7 km/h 60% 0 mm 18 W/m2
07:24 -13.2 °C -19.2 °C 1016.5 hPa NNW 6.1 km/h 25.7 km/h 60.6% 0 mm 23 W/m2
07:29 -13.2 °C -19.1 °C 1016.5 hPa NNE 5.1 km/h 25.7 km/h 60.8% 0 mm 26 W/m2
07:34 -13.1 °C -19.1 °C 1016.8 hPa North 6 km/h 25.7 km/h 61% 0 mm 54 W/m2
07:39 -13 °C -18.9 °C 1016.8 hPa NNW 6.8 km/h 12.9 km/h 61% 0 mm 51 W/m2
07:44 -12.8 °C -18.8 °C 1016.8 hPa WNW 7.2 km/h 17.7 km/h 61% 0 mm 79 W/m2
07:49 -12.7 °C -18.8 °C 1016.8 hPa NW 7.1 km/h 24.1 km/h 60% 0 mm 63 W/m2
07:54 -12.6 °C -18.7 °C 1016.8 hPa WNW 11.3 km/h 29 km/h 59.9% 0 mm 56 W/m2
07:59 -12.6 °C -18.8 °C 1016.8 hPa NW 6 km/h 29 km/h 59.2% 0 mm 56 W/m2
08:00 -12.6 °C -18.7 °C 1016.8 hPa WNW 6.4 km/h 29 km/h 60% 0 mm 56 W/m2
08:09 -12.6 °C -18.8 °C 1016.8 hPa WNW 12.9 km/h 25.7 km/h 60% 0 mm 74 W/m2
08:14 -12.7 °C -18.8 °C 1016.8 hPa WNW 9.2 km/h 25.7 km/h 60.2% 0 mm 86 W/m2
08:19 -12.7 °C -18.7 °C 1016.5 hPa WNW 12.1 km/h 25.7 km/h 61% 0 mm 83 W/m2
08:24 -12.7 °C -18.7 °C 1016.5 hPa NW 12.2 km/h 27.4 km/h 61% 0 mm 72 W/m2
08:29 -12.8 °C -18.7 °C 1016.5 hPa NW 8.4 km/h 27.4 km/h 61% 0 mm 62 W/m2
08:34 -12.8 °C -18.7 °C 1016.5 hPa NW 12.7 km/h 27.4 km/h 61% 0 mm 53 W/m2
08:39 -12.8 °C -18.8 °C 1016.5 hPa WNW 16.7 km/h 35.4 km/h 61% 0 mm 105 W/m2
08:44 -12.8 °C -18.8 °C 1016.1 hPa NW 10.8 km/h 35.4 km/h 61% 0 mm 130 W/m2
08:49 -12.7 °C -18.6 °C 1016.1 hPa NW 13 km/h 35.4 km/h 61.2% 0 mm 148 W/m2
08:54 -12.5 °C -18.4 °C 1016.5 hPa NW 10 km/h 35.4 km/h 60.9% 0 mm 179 W/m2
08:59 -12.2 °C -18.4 °C 1016.5 hPa NW 11.7 km/h 35.4 km/h 60% 0 mm 211 W/m2
09:04 -12 °C -18.4 °C 1016.5 hPa NW 16.6 km/h 35.4 km/h 58.8% 0 mm 211 W/m2
09:09 -11.9 °C -18.4 °C 1016.1 hPa NW 11.9 km/h 33.8 km/h 58% 0 mm 271 W/m2
09:14 -11.7 °C -18.4 °C 1016.1 hPa NW 13.7 km/h 33.8 km/h 57.6% 0 mm 272 W/m2
09:19 -11.6 °C -18.6 °C 1016.1 hPa NW 13.4 km/h 33.8 km/h 56.3% 0 mm 197 W/m2
09:24 -11.7 °C -18.7 °C 1016.1 hPa NW 11.3 km/h 33.8 km/h 56% 0 mm 209 W/m2
09:29 -11.6 °C -18.6 °C 1016.1 hPa NW 11.1 km/h 33.8 km/h 56.2% 0 mm 214 W/m2
09:34 -11.4 °C -18.4 °C 1016.1 hPa NNW 14.5 km/h 37 km/h 56% 0 mm 183 W/m2
09:39 -11.4 °C -18.7 °C 1016.5 hPa NW 18.5 km/h 40.2 km/h 54.8% 0 mm 248 W/m2
09:44 -11.5 °C -18.9 °C 1016.1 hPa NW 17.2 km/h 41.8 km/h 54% 0 mm 211 W/m2
09:49 -11.6 °C -18.9 °C 1016.5 hPa NW 10.1 km/h 41.8 km/h 54.4% 0 mm 174 W/m2
09:54 -11.5 °C -18.6 °C 1016.5 hPa NW 12.1 km/h 41.8 km/h 56.1% 0 mm 237 W/m2
09:59 -11.4 °C -18.7 °C 1016.5 hPa NW 16.9 km/h 41.8 km/h 54.8% 0 mm 237 W/m2
10:04 -11.4 °C -18.9 °C 1016.5 hPa NW 15.3 km/h 41.8 km/h 54% 0 mm 169 W/m2
10:09 -11.5 °C -18.9 °C 1016.5 hPa NW 12.2 km/h 30.6 km/h 54.3% 0 mm 230 W/m2
10:14 -11.4 °C -18.7 °C 1016.5 hPa NW 12.2 km/h 30.6 km/h 54.8% 0 mm 279 W/m2
10:19 -11.3 °C -18.7 °C 1016.1 hPa NW 16.4 km/h 32.2 km/h 54.1% 0 mm 313 W/m2
10:24 -11.1 °C -18.6 °C 1016.5 hPa NW 11.4 km/h 32.2 km/h 54% 0 mm 279 W/m2
10:29 -10.9 °C -18.4 °C 1016.5 hPa NW 14.2 km/h 32.2 km/h 54% 0 mm 353 W/m2
10:34 -10.8 °C -18.6 °C 1016.5 hPa NW 16.3 km/h 33.8 km/h 52.8% 0 mm 408 W/m2
10:39 -10.7 °C -18.4 °C 1016.1 hPa NW 10.8 km/h 33.8 km/h 53% 0 mm 420 W/m2
10:44 -10.5 °C -18.4 °C 1016.5 hPa NW 16.9 km/h 33.8 km/h 52.4% 0 mm 487 W/m2
10:49 -10.4 °C -18.4 °C 1016.5 hPa NW 13.2 km/h 33.8 km/h 52% 0 mm 497 W/m2
10:54 -10.2 °C -18.1 °C 1016.1 hPa NW 8.5 km/h 33.8 km/h 52.3% 0 mm 548 W/m2
10:59 -9.7 °C -17.7 °C 1016.1 hPa NW 12.6 km/h 33.8 km/h 51.9% 0 mm 555 W/m2
11:04 -9.4 °C -17.8 °C 1016.1 hPa NW 13 km/h 33.8 km/h 50.3% 0 mm 550 W/m2
11:09 -9.3 °C -17.4 °C 1016.1 hPa NW 13 km/h 35.4 km/h 51.3% 0 mm 522 W/m2
11:14 -9.3 °C -18.1 °C 1016.1 hPa NW 19.6 km/h 41.8 km/h 48.9% 0 mm 436 W/m2
11:19 -9.7 °C -18.4 °C 1015.8 hPa NW 17.2 km/h 41.8 km/h 49% 0 mm 243 W/m2
11:24 -9.9 °C -18.3 °C 1015.8 hPa NW 14.3 km/h 41.8 km/h 49.9% 0 mm 306 W/m2
11:29 -9.9 °C -18.3 °C 1015.8 hPa NW 14.2 km/h 41.8 km/h 50.4% 0 mm 306 W/m2
11:34 -9.9 °C -18.2 °C 1015.8 hPa NW 12.9 km/h 41.8 km/h 50.7% 0 mm 369 W/m2
11:39 -9.9 °C -18.2 °C 1015.8 hPa NNW 11.1 km/h 41.8 km/h 50.7% 0 mm 380 W/m2
11:44 -9.8 °C -18.1 °C 1015.8 hPa NW 12.6 km/h 41.8 km/h 50.7% 0 mm 376 W/m2
11:49 -9.6 °C -18.1 °C 1015.8 hPa NW 17.4 km/h 41.8 km/h 50.3% 0 mm 213 W/m2
11:54 -9.6 °C -18.1 °C 1015.5 hPa NNW 14.8 km/h 41.8 km/h 50% 0 mm 308 W/m2
11:59 -9.5 °C -18 °C 1015.5 hPa NW 10.9 km/h 41.8 km/h 50% 0 mm 485 W/m2
12:04 -9.4 °C -17.9 °C 1015.1 hPa NNW 9.7 km/h 41.8 km/h 50% 0 mm 485 W/m2
12:09 -9.3 °C -17.9 °C 1015.5 hPa NW 17.9 km/h 48.3 km/h 49.8% 0 mm 137 W/m2
12:14 -9.4 °C -18.1 °C 1015.5 hPa NW 11.4 km/h 48.3 km/h 49.5% 0 mm 197 W/m2
12:19 -9.3 °C -17.6 °C 1015.5 hPa NW 14.3 km/h 48.3 km/h 50.9% 0 mm 144 W/m2
12:24 -9.2 °C -17.6 °C 1015.8 hPa NW 12.2 km/h 48.3 km/h 50.7% 0 mm 162 W/m2
12:29 -9.2 °C -17.6 °C 1015.5 hPa NW 17.9 km/h 48.3 km/h 50.4% 0 mm 160 W/m2
12:34 -9.2 °C -17.8 °C 1015.5 hPa NW 21.1 km/h 48.3 km/h 49.4% 0 mm 209 W/m2
12:39 -9.2 °C -17.9 °C 1015.5 hPa NW 18.7 km/h 45.1 km/h 49% 0 mm 178 W/m2
12:44 -9.2 °C -17.7 °C 1015.1 hPa WNW 11.9 km/h 45.1 km/h 49.9% 0 mm 137 W/m2
12:49 -9.1 °C -17.6 °C 1015.5 hPa NW 14.5 km/h 45.1 km/h 50% 0 mm 137 W/m2
12:54 -8.9 °C -17.4 °C 1015.5 hPa NW 15.6 km/h 45.1 km/h 49.9% 0 mm 311 W/m2
12:59 -8.8 °C -17.3 °C 1015.5 hPa WNW 13.4 km/h 45.1 km/h 50% 0 mm 311 W/m2
13:04 -8.6 °C -17.2 °C 1015.5 hPa NW 14 km/h 45.1 km/h 50% 0 mm 230 W/m2
13:09 -8.4 °C -17 °C 1015.5 hPa NNW 11.6 km/h 32.2 km/h 50% 0 mm 155 W/m2
13:14 -8.3 °C -17.1 °C 1015.5 hPa NNW 16.6 km/h 33.8 km/h 49.3% 0 mm 176 W/m2
13:19 -8.3 °C -16.9 °C 1015.5 hPa NW 11.1 km/h 33.8 km/h 49.7% 0 mm 221 W/m2
13:24 -8.1 °C -16.7 °C 1015.1 hPa NW 15.1 km/h 38.6 km/h 49.9% 0 mm 295 W/m2
13:29 -7.9 °C -16.8 °C 1015.5 hPa NW 14.8 km/h 38.6 km/h 48.8% 0 mm 345 W/m2
13:34 -7.8 °C -16.8 °C 1015.5 hPa NW 16.1 km/h 38.6 km/h 48.4% 0 mm 345 W/m2
13:39 -7.8 °C -16.8 °C 1015.1 hPa NW 14.6 km/h 37 km/h 48.3% 0 mm 338 W/m2
13:44 -7.7 °C -16.6 °C 1015.1 hPa NW 15.8 km/h 43.5 km/h 48.7% 0 mm 527 W/m2
13:49 -7.7 °C -16.8 °C 1015.1 hPa NNW 14 km/h 43.5 km/h 48% 0 mm 526 W/m2
13:54 -7.7 °C -16.8 °C 1015.1 hPa NW 12.4 km/h 43.5 km/h 48% 0 mm 306 W/m2
13:59 -7.6 °C -16.6 °C 1015.5 hPa NW 14.8 km/h 43.5 km/h 48.5% 0 mm 114 W/m2
14:04 -7.6 °C -16.7 °C 1015.5 hPa NW 11.7 km/h 43.5 km/h 48% 0 mm 251 W/m2
14:09 -7.4 °C -16.6 °C 1015.5 hPa NW 12.7 km/h 30.6 km/h 48% 0 mm 390 W/m2
14:14 -7.3 °C -16.4 °C 1015.5 hPa NW 14.5 km/h 30.6 km/h 48% 0 mm 390 W/m2
14:19 -7.2 °C -16.4 °C 1015.5 hPa NW 13.4 km/h 30.6 km/h 47.6% 0 mm 374 W/m2
14:24 -7.2 °C -16.4 °C 1015.8 hPa NW 9.5 km/h 30.6 km/h 47.7% 0 mm 116 W/m2
14:29 -7.2 °C -16.2 °C 1015.8 hPa NNW 12.6 km/h 30.6 km/h 48.2% 0 mm 346 W/m2
14:34 -7.1 °C -16.2 °C 1015.8 hPa NNW 13.8 km/h 30.6 km/h 48% 0 mm 322 W/m2
14:39 -7.1 °C -16.2 °C 1015.8 hPa NW 12.6 km/h 29 km/h 48% 0 mm 142 W/m2
14:44 -7.1 °C -16.2 °C 1016.1 hPa NW 13.8 km/h 29 km/h 48% 0 mm 142 W/m2
14:49 -7.1 °C -16.2 °C 1016.1 hPa NW 9.3 km/h 29 km/h 48.4% 0 mm 100 W/m2
14:54 -7 °C -15.7 °C 1016.1 hPa NNW 8.2 km/h 29 km/h 49.8% 0 mm 227 W/m2
14:59 -6.9 °C -15.8 °C 1016.1 hPa NNW 8.5 km/h 29 km/h 49% 0 mm 281 W/m2
15:04 -6.8 °C -15.7 °C 1016.1 hPa NW 6.9 km/h 29 km/h 49% 0 mm 35 W/m2
15:09 -6.8 °C -15.7 °C 1016.1 hPa NNW 6.8 km/h 20.9 km/h 49% 0 mm 33 W/m2
15:14 -6.7 °C -15.7 °C 1016.5 hPa NNW 10.1 km/h 20.9 km/h 49% 0 mm 30 W/m2
15:19 -6.7 °C -15.7 °C 1016.5 hPa NW 15.6 km/h 33.8 km/h 49% 0 mm 30 W/m2
15:24 -6.7 °C -15.7 °C 1016.5 hPa NNW 10.6 km/h 33.8 km/h 49% 0 mm 30 W/m2
15:29 -6.8 °C -15.7 °C 1016.5 hPa NNW 7.4 km/h 33.8 km/h 49% 0 mm 28 W/m2
15:34 -6.7 °C -15.6 °C 1016.5 hPa NW 7.4 km/h 33.8 km/h 49.4% 0 mm 26 W/m2
15:39 -6.7 °C -15.3 °C 1016.5 hPa NNW 10.6 km/h 25.7 km/h 50% 0 mm 26 W/m2
15:44 -6.7 °C -15.4 °C 1016.8 hPa NW 16.6 km/h 35.4 km/h 49.8% 0 mm 25 W/m2
15:49 -6.7 °C -15.7 °C 1016.8 hPa NW 15.9 km/h 35.4 km/h 49% 0 mm 25 W/m2
15:54 -6.8 °C -15.6 °C 1016.8 hPa NW 10.3 km/h 35.4 km/h 49.6% 0 mm 23 W/m2
15:59 -6.8 °C -15.4 °C 1017.2 hPa NW 14.3 km/h 35.4 km/h 50.2% 0 mm 21 W/m2
16:00 -6.8 °C -15.5 °C 1016.8 hPa NW 8 km/h 35.4 km/h 50% 0 mm 21 W/m2
16:09 -6.9 °C -15.6 °C 1017.2 hPa NNW 10.1 km/h 25.7 km/h 50% 0 mm 19 W/m2
16:14 -6.9 °C -15.4 °C 1017.2 hPa NW 13 km/h 27.4 km/h 51% 0 mm 19 W/m2
16:19 -6.9 °C -15.4 °C 1017.5 hPa NW 15.1 km/h 29 km/h 51% 0 mm 18 W/m2
16:24 -7 °C -15 °C 1017.5 hPa NW 13.2 km/h 30.6 km/h 52.9% 0 mm 18 W/m2
16:29 -7.1 °C -15.3 °C 1017.5 hPa NW 12.6 km/h 30.6 km/h 51.7% 0 mm 16 W/m2
16:34 -7.1 °C -15.3 °C 1017.5 hPa NW 11.4 km/h 30.6 km/h 52% 0 mm 14 W/m2
16:39 -7.2 °C -15.3 °C 1017.5 hPa NW 14.8 km/h 40.2 km/h 52% 0 mm 12 W/m2
16:44 -7.2 °C -15.3 °C 1017.8 hPa NW 12.6 km/h 40.2 km/h 52.4% 0 mm 11 W/m2
16:49 -7.2 °C -15.2 °C 1017.8 hPa NW 10 km/h 40.2 km/h 53% 0 mm 9 W/m2
16:54 -7.3 °C -15.1 °C 1017.8 hPa NW 10.9 km/h 40.2 km/h 53.5% 0 mm 7 W/m2
16:59 -7.3 °C -15.1 °C 1017.8 hPa NW 10.6 km/h 40.2 km/h 53.6% 0 mm 5 W/m2
17:04 -7.3 °C -15 °C 1017.8 hPa NW 8.4 km/h 40.2 km/h 54% 0 mm 0 W/m2
17:09 -7.3 °C -15.1 °C 1018.2 hPa NNW 7.1 km/h 20.9 km/h 54% 0 mm 0 W/m2
17:14 -7.4 °C -15.1 °C 1018.2 hPa NNW 7.4 km/h 20.9 km/h 54.2% 0 mm 0 W/m2
17:19 -7.4 °C -14.9 °C 1018.2 hPa NNW 5.3 km/h 20.9 km/h 55% 0 mm 0 W/m2
17:24 -7.4 °C -14.9 °C 1018.5 hPa NW 8.5 km/h 20.9 km/h 55% 0 mm 0 W/m2
17:29 -7.5 °C -14.8 °C 1018.5 hPa NW 12.1 km/h 30.6 km/h 55.8% 0 mm 0 W/m2
17:34 -7.5 °C -14.8 °C 1018.5 hPa NW 11.6 km/h 30.6 km/h 56% 0 mm 0 W/m2
17:39 -7.6 °C -14.8 °C 1018.5 hPa NW 8.4 km/h 30.6 km/h 56% 0 mm 0 W/m2
17:44 -7.6 °C -14.7 °C 1018.5 hPa NW 8.7 km/h 30.6 km/h 56.6% 0 mm 0 W/m2
17:49 -7.6 °C -14.7 °C 1018.5 hPa NW 7.4 km/h 30.6 km/h 57% 0 mm 0 W/m2
17:54 -7.7 °C -14.7 °C 1018.8 hPa NNW 8.9 km/h 30.6 km/h 57% 0 mm 0 W/m2
17:59 -7.7 °C -14.7 °C 1018.8 hPa NW 9.5 km/h 30.6 km/h 57% 0 mm 0 W/m2
18:04 -7.7 °C -14.7 °C 1018.8 hPa NW 8.7 km/h 30.6 km/h 57% 0 mm 0 W/m2
18:09 -7.7 °C -14.6 °C 1019.2 hPa NW 10.1 km/h 25.7 km/h 57.6% 0 mm 0 W/m2
18:14 -7.7 °C -14.7 °C 1019.2 hPa NW 4.5 km/h 25.7 km/h 57.3% 0 mm 0 W/m2
18:19 -7.8 °C -14.6 °C 1019.2 hPa NNW 6.6 km/h 25.7 km/h 58% 0 mm 0 W/m2
18:24 -7.8 °C -14.6 °C 1019.2 hPa NW 6.3 km/h 25.7 km/h 58% 0 mm 0 W/m2
18:29 -7.8 °C -14.7 °C 1019.2 hPa NNW 4.8 km/h 25.7 km/h 58% 0 mm 0 W/m2
18:34 -7.9 °C -14.7 °C 1019.2 hPa NW 7.7 km/h 25.7 km/h 58% 0 mm 0 W/m2
18:39 -7.9 °C -14.7 °C 1019.5 hPa NW 8.4 km/h 20.9 km/h 58% 0 mm 0 W/m2
18:44 -7.9 °C -14.6 °C 1019.5 hPa NNW 4 km/h 20.9 km/h 58.8% 0 mm 0 W/m2
18:49 -8 °C -14.6 °C 1019.5 hPa NW 7.9 km/h 20.9 km/h 59% 0 mm 0 W/m2
18:54 -8 °C -14.6 °C 1019.5 hPa NNW 7.1 km/h 20.9 km/h 59% 0 mm 0 W/m2
18:59 -8.1 °C -14.7 °C 1019.5 hPa NW 8.7 km/h 22.5 km/h 59% 0 mm 0 W/m2
19:04 -8.1 °C -14.7 °C 1019.5 hPa NNW 7.2 km/h 22.5 km/h 59% 0 mm 0 W/m2
19:09 -8.1 °C -14.6 °C 1019.9 hPa NNW 6.3 km/h 19.3 km/h 59.7% 0 mm 0 W/m2
19:14 -8.2 °C -14.6 °C 1019.9 hPa NW 5.5 km/h 19.3 km/h 60% 0 mm 0 W/m2
19:19 -8.2 °C -14.6 °C 1019.9 hPa NW 6.4 km/h 19.3 km/h 60% 0 mm 0 W/m2
19:24 -8.2 °C -14.6 °C 1019.9 hPa NW 5.8 km/h 19.3 km/h 60% 0 mm 0 W/m2
19:29 -8.2 °C -14.6 °C 1019.9 hPa NW 5.6 km/h 22.5 km/h 60% 0 mm 0 W/m2
19:34 -8.3 °C -14.7 °C 1019.9 hPa NW 7.1 km/h 22.5 km/h 60% 0 mm 0 W/m2
19:39 -8.3 °C -14.7 °C 1019.9 hPa NW 6.8 km/h 17.7 km/h 60% 0 mm 0 W/m2
19:44 -8.3 °C -14.7 °C 1020.2 hPa NW 5.3 km/h 17.7 km/h 60% 0 mm 0 W/m2
19:49 -8.3 °C -14.7 °C 1020.2 hPa NNW 5.3 km/h 17.7 km/h 60% 0 mm 0 W/m2
19:54 -8.3 °C -14.7 °C 1020.2 hPa NW 4.5 km/h 17.7 km/h 60% 0 mm 0 W/m2
19:59 -8.3 °C -14.6 °C 1020.2 hPa NW 3.7 km/h 17.7 km/h 60.4% 0 mm 0 W/m2
20:00 -8.3 °C -14.7 °C 1020.2 hPa NW 8 km/h 17.7 km/h 60% 0 mm 0 W/m2
20:09 -8.4 °C -14.6 °C 1020.2 hPa NNW 8.4 km/h 19.3 km/h 61% 0 mm 0 W/m2
20:14 -8.4 °C -14.6 °C 1020.2 hPa NW 9 km/h 20.9 km/h 61% 0 mm 0 W/m2
20:19 -8.4 °C -14.6 °C 1020.2 hPa NW 7.6 km/h 20.9 km/h 61% 0 mm 0 W/m2
20:24 -8.4 °C -14.6 °C 1020.5 hPa NNW 5.8 km/h 20.9 km/h 61% 0 mm 0 W/m2
20:29 -8.4 °C -14.6 °C 1020.2 hPa NW 8.4 km/h 20.9 km/h 61% 0 mm 0 W/m2
20:34 -8.4 °C -14.6 °C 1020.5 hPa NW 7.1 km/h 20.9 km/h 61% 0 mm 0 W/m2
20:39 -8.4 °C -14.6 °C 1020.5 hPa NW 6.4 km/h 16.1 km/h 61% 0 mm 0 W/m2
20:44 -8.4 °C -14.6 °C 1020.5 hPa NNW 6.3 km/h 19.3 km/h 61% 0 mm 0 W/m2
20:49 -8.4 °C -14.6 °C 1020.9 hPa NNW 7.2 km/h 19.3 km/h 61% 0 mm 0 W/m2
20:54 -8.5 °C -14.7 °C 1020.5 hPa NW 6.8 km/h 25.7 km/h 61% 0 mm 0 W/m2
20:59 -8.5 °C -14.7 °C 1020.9 hPa NW 7.6 km/h 25.7 km/h 61% 0 mm 0 W/m2
21:04 -8.6 °C -14.7 °C 1020.9 hPa NW 7.4 km/h 25.7 km/h 61% 0 mm 0 W/m2
21:09 -8.6 °C -14.7 °C 1020.9 hPa NW 6.4 km/h 16.1 km/h 61% 0 mm 0 W/m2
21:14 -8.6 °C -14.8 °C 1020.9 hPa NW 3.1 km/h 16.1 km/h 61% 0 mm 0 W/m2
21:19 -8.7 °C -14.8 °C 1020.9 hPa NW 6.1 km/h 19.3 km/h 61% 0 mm 0 W/m2
21:24 -8.7 °C -14.8 °C 1020.9 hPa NNW 4.8 km/h 19.3 km/h 61% 0 mm 0 W/m2
21:29 -8.7 °C -14.8 °C 1020.9 hPa NW 4.2 km/h 19.3 km/h 61.5% 0 mm 0 W/m2
21:34 -8.7 °C -14.7 °C 1020.9 hPa NNW 5.8 km/h 19.3 km/h 61.7% 0 mm 0 W/m2
21:39 -8.8 °C -14.8 °C 1021.2 hPa NNW 5 km/h 19.3 km/h 61.5% 0 mm 0 W/m2
21:44 -8.8 °C -14.8 °C 1021.2 hPa NNW 4.7 km/h 19.3 km/h 61.9% 0 mm 0 W/m2
21:49 -8.8 °C -14.8 °C 1021.2 hPa NNW 5.6 km/h 19.3 km/h 62% 0 mm 0 W/m2
21:54 -8.8 °C -14.8 °C 1021.2 hPa NNW 7.7 km/h 20.9 km/h 62% 0 mm 0 W/m2
21:59 -8.8 °C -14.8 °C 1021.2 hPa NW 4.7 km/h 20.9 km/h 62% 0 mm 0 W/m2
22:04 -8.9 °C -14.8 °C 1021.2 hPa NNW 5 km/h 20.9 km/h 62% 0 mm 0 W/m2
22:09 -8.9 °C -14.9 °C 1021.2 hPa NNW 4.8 km/h 12.9 km/h 62% 0 mm 0 W/m2
22:14 -8.9 °C -14.9 °C 1021.2 hPa NW 5.1 km/h 14.5 km/h 62% 0 mm 0 W/m2
22:19 -9 °C -14.9 °C 1021.2 hPa NNW 5.3 km/h 14.5 km/h 62% 0 mm 0 W/m2
22:24 -9.1 °C -15 °C 1021.6 hPa NW 4 km/h 16.1 km/h 62% 0 mm 0 W/m2
22:29 -9.1 °C -14.8 °C 1021.6 hPa NW 2.4 km/h 16.1 km/h 63% 0 mm 0 W/m2
22:34 -9.2 °C -14.9 °C 1021.6 hPa NW 0.3 km/h 16.1 km/h 63% 0 mm 0 W/m2
22:39 -9.2 °C -15 °C 1021.6 hPa NW 3.2 km/h 11.3 km/h 63% 0 mm 0 W/m2
22:44 -9.3 °C -15.1 °C 1021.6 hPa NNW 4.3 km/h 11.3 km/h 63% 0 mm 0 W/m2
22:49 -9.4 °C -15.1 °C 1021.6 hPa NNW 2.3 km/h 11.3 km/h 63% 0 mm 0 W/m2
22:54 -9.4 °C -15.2 °C 1021.6 hPa NNW 1.8 km/h 11.3 km/h 63.1% 0 mm 0 W/m2
22:59 -9.6 °C -15.2 °C 1021.6 hPa North 3.5 km/h 11.3 km/h 63.4% 0 mm 0 W/m2
23:04 -9.6 °C -15.2 °C 1021.6 hPa NNW 4 km/h 11.3 km/h 64% 0 mm 0 W/m2
23:09 -9.7 °C -15.2 °C 1021.6 hPa NNW 3.4 km/h 11.3 km/h 64% 0 mm 0 W/m2
23:14 -9.7 °C -15.2 °C 1021.6 hPa NNW 4.2 km/h 11.3 km/h 64% 0 mm 0 W/m2
23:19 -9.8 °C -15.3 °C 1021.6 hPa NNW 2.7 km/h 11.3 km/h 64% 0 mm 0 W/m2
23:24 -9.8 °C -15.3 °C 1021.6 hPa NNW 2.7 km/h 11.3 km/h 64% 0 mm 0 W/m2
23:29 -9.9 °C -15.4 °C 1021.9 hPa NNW 2.9 km/h 11.3 km/h 64% 0 mm 0 W/m2
23:34 -9.9 °C -15.4 °C 1021.9 hPa NNW 2.4 km/h 11.3 km/h 64% 0 mm 0 W/m2
23:39 -10 °C -15.5 °C 1021.9 hPa NNW 1.1 km/h 9.7 km/h 64.2% 0 mm 0 W/m2
23:44 -10.1 °C -15.4 °C 1021.9 hPa NNW 1.9 km/h 9.7 km/h 65% 0 mm 0 W/m2
23:49 -10.2 °C -15.6 °C 1021.9 hPa NNW 2.4 km/h 9.7 km/h 64.5% 0 mm 0 W/m2
23:54 -10.2 °C -15.6 °C 1021.9 hPa NNW 1.8 km/h 9.7 km/h 65% 0 mm 0 W/m2
23:59 -10.3 °C -15.6 °C 1021.9 hPa NNW 2.1 km/h 9.7 km/h 65% 0 mm 0 W/m2
Hartford County Weather
Compliments of Weather Underground - 2 mb